Time;durP1;ratioP1;P1;durP2;ratioP2;P2;SDS_P1;SDS_P2;PMS_P1;PMS_P2;Temp;Humidity;BMP_temperature;BMP_pressure;BME280_temperature;BME280_humidity;BME280_pressure;Samples;Min_cycle;Max_cycle;Signal;HPM_P1;HPM_P2
2024/02/13 00:01:39;;;;;;;12.90;3.55;;;;;;;-146.27;87.71;41208.00;5069370;28;20036;-72
2024/02/13 00:04:05;;;;;;;11.75;3.28;;;;;;;-146.27;88.03;41190.09;5077642;28;20021;-73
2024/02/13 00:06:31;;;;;;;6.63;3.03;;;;;;;-146.27;87.47;41202.03;5068803;28;20111;-72
2024/02/13 00:08:57;;;;;;;5.15;3.70;;;;;;;-146.27;87.36;41162.28;5069291;28;20020;-73
2024/02/13 00:11:24;;;;;;;9.73;4.03;;;;;;;-146.27;87.69;41184.16;5068877;28;20499;-73
2024/02/13 00:13:49;;;;;;;7.85;3.28;;;;;;;-146.27;88.59;41160.28;5068519;28;20035;-73
2024/02/13 00:16:17;;;;;;;11.05;4.00;;;;;;;-146.27;87.62;41172.22;5070901;28;20488;-73
2024/02/13 00:18:43;;;;;;;8.93;4.32;;;;;;;-146.27;87.80;41158.31;5071412;28;20028;-72
2024/02/13 00:21:09;;;;;;;7.45;3.88;;;;;;;-146.27;87.90;41208.00;5066338;28;20048;-73
2024/02/13 00:23:36;;;;;;;11.07;4.35;;;;;;;-146.27;88.98;41200.06;5068666;28;20112;-72
2024/02/13 00:26:04;;;;;;;16.13;4.85;;;;;;;-146.27;87.94;41192.09;5069418;28;20048;-73
2024/02/13 00:28:29;;;;;;;11.00;4.97;;;;;;;-146.27;88.02;41208.00;5071419;28;20029;-73
2024/02/13 00:30:56;;;;;;;13.80;4.82;;;;;;;-146.27;87.61;41198.06;5068621;28;20047;-73
2024/02/13 00:33:21;;;;;;;13.07;4.55;;;;;;;-146.27;87.30;41219.94;5070168;28;20028;-73
2024/02/13 00:35:47;;;;;;;9.50;4.30;;;;;;;-146.27;87.42;41231.84;5067072;28;20487;-73
2024/02/13 00:38:15;;;;;;;13.27;4.80;;;;;;;-146.27;87.44;41239.81;5069634;28;20336;-73
2024/02/13 00:40:41;;;;;;;12.85;5.05;;;;;;;-146.27;87.66;41227.88;5069779;28;20028;-74
2024/02/13 00:43:07;;;;;;;9.20;5.60;;;;;;;-146.27;88.94;41227.88;5067187;28;20020;-73
2024/02/13 00:45:32;;;;;;;11.95;5.32;;;;;;;-146.27;88.66;41225.91;5065503;28;20028;-74
2024/02/13 00:47:57;;;;;;;8.65;5.03;;;;;;;-146.27;88.18;41235.84;5070242;28;20081;-73
2024/02/13 00:50:23;;;;;;;11.75;5.25;;;;;;;-146.27;88.24;41247.75;5067461;28;20036;-73
2024/02/13 00:52:50;;;;;;;12.65;5.38;;;;;;;-146.27;88.32;41233.84;5063507;28;20035;-73
2024/02/13 00:55:15;;;;;;;10.35;5.28;;;;;;;-146.27;88.44;41255.72;5069015;28;20024;-74
2024/02/13 00:57:41;;;;;;;13.77;6.40;;;;;;;-146.27;89.37;41265.66;5073026;28;20028;-74
2024/02/13 01:00:11;;;;;;;10.55;6.20;;;;;;;-146.27;89.45;41231.84;5068137;28;20020;-73
2024/02/13 01:02:36;;;;;;;15.68;6.40;;;;;;;-146.27;89.40;41225.91;5068968;28;20035;-73
2024/02/13 01:05:02;;;;;;;11.07;6.07;;;;;;;-146.27;89.64;41180.16;5070884;28;20412;-74
2024/02/13 01:07:28;;;;;;;11.50;6.45;;;;;;;-146.27;90.35;41223.91;5070010;28;20494;-73
2024/02/13 01:09:54;;;;;;;15.35;6.90;;;;;;;-146.27;90.60;41184.16;5066015;28;20028;-74
2024/02/13 01:12:19;;;;;;;17.98;7.40;;;;;;;-146.27;90.16;41128.47;5067752;28;20740;-73
2024/02/13 01:14:45;;;;;;;18.45;7.45;;;;;;;-146.27;90.37;41152.34;5069320;28;20480;-73
2024/02/13 01:17:10;;;;;;;19.88;7.78;;;;;;;-146.27;89.76;41134.44;5070502;28;20024;-72
2024/02/13 01:19:35;;;;;;;15.07;7.38;;;;;;;-146.27;89.88;41188.13;5068172;28;20043;-73
2024/02/13 01:22:01;;;;;;;13.23;7.43;;;;;;;-146.27;90.47;41152.34;5066649;28;20404;-72
2024/02/13 01:24:26;;;;;;;14.73;8.88;;;;;;;-146.27;90.56;41188.13;5068371;28;20362;-72
2024/02/13 01:26:53;;;;;;;16.23;9.13;;;;;;;-146.27;90.56;41138.41;5068713;28;20038;-72
2024/02/13 01:29:19;;;;;;;20.13;7.90;;;;;;;-146.27;89.90;41148.34;5067679;28;20028;-73
2024/02/13 01:31:46;;;;;;;17.05;8.10;;;;;;;-146.27;89.47;41136.44;5066926;28;20028;-73
2024/02/13 01:34:11;;;;;;;16.13;8.27;;;;;;;-146.27;89.10;41164.25;5069184;28;20376;-73
2024/02/13 01:36:37;;;;;;;19.52;9.07;;;;;;;-146.27;89.31;41158.31;5071584;28;20039;-73
2024/02/13 01:39:03;;;;;;;18.40;8.07;;;;;;;-146.27;89.18;41132.44;5077174;28;20047;-73
2024/02/13 01:41:29;;;;;;;19.40;9.25;;;;;;;-146.27;88.82;41138.41;5069128;28;20020;-73
2024/02/13 01:43:59;;;;;;;16.67;9.13;;;;;;;-146.27;89.13;41176.19;5065438;28;20029;-73
2024/02/13 01:46:28;;;;;;;23.70;8.80;;;;;;;-146.27;89.73;41186.13;5069946;28;20158;-73
2024/02/13 01:49:00;;;;;;;20.70;8.52;;;;;;;-146.27;89.55;41206.00;5067977;28;20029;-73
2024/02/13 01:51:29;;;;;;;16.20;8.57;;;;;;;-146.27;89.65;41198.06;5066906;28;20055;-73
2024/02/13 01:53:58;;;;;;;19.83;9.02;;;;;;;-146.27;89.21;41164.25;5067024;28;20033;-73
2024/02/13 01:56:27;;;;;;;26.13;9.63;;;;;;;-146.27;90.15;41194.09;5083439;28;20354;-72
2024/02/13 01:58:52;;;;;;;18.88;9.65;;;;;;;-146.27;90.88;41211.97;5067862;28;20028;-72
2024/02/13 02:01:18;;;;;;;27.98;9.27;;;;;;;-146.27;89.94;41132.44;5068000;28;20511;-72
2024/02/13 02:03:44;;;;;;;15.45;9.48;;;;;;;-146.27;89.80;41112.56;5068982;28;20063;-72
2024/02/13 02:06:10;;;;;;;13.65;8.45;;;;;;;-146.27;89.17;41158.31;5068067;28;20039;-73
2024/02/13 02:08:35;;;;;;;20.85;9.63;;;;;;;-146.27;89.75;41221.91;5070351;28;20249;-73
2024/02/13 02:11:01;;;;;;;16.58;9.23;;;;;;;-146.27;89.92;41146.38;5066773;28;20321;-72
2024/02/13 02:13:27;;;;;;;15.80;9.48;;;;;;;-146.27;89.38;41148.34;5069404;28;20119;-72
2024/02/13 02:15:54;;;;;;;23.05;11.15;;;;;;;-146.27;89.88;41192.09;5068208;28;20013;-73
2024/02/13 02:18:20;;;;;;;17.27;10.13;;;;;;;-146.27;90.99;41182.16;5066810;28;20162;-72
2024/02/13 02:20:46;;;;;;;14.60;9.43;;;;;;;-146.27;91.15;41192.09;5067739;28;20028;-72
2024/02/13 02:23:12;;;;;;;18.65;10.27;;;;;;;-146.27;90.80;41108.59;5067067;28;20089;-72
2024/02/13 02:25:37;;;;;;;19.15;10.35;;;;;;;-146.27;90.29;41132.44;5064754;28;20025;-73
2024/02/13 02:28:04;;;;;;;18.02;9.93;;;;;;;-146.27;89.35;41128.47;5065815;28;20062;-73
2024/02/13 02:30:29;;;;;;;15.98;8.82;;;;;;;-146.27;88.92;41132.44;5062072;28;20036;-74
2024/02/13 02:32:55;;;;;;;20.70;9.77;;;;;;;-146.27;89.53;41154.31;5065161;28;20040;-73
2024/02/13 02:35:20;;;;;;;18.70;9.43;;;;;;;-146.27;89.37;41150.34;5068752;28;20019;-73
2024/02/13 02:37:48;;;;;;;16.65;9.57;;;;;;;-146.27;88.79;41156.31;5069040;28;20154;-73
2024/02/13 02:40:14;;;;;;;20.27;9.57;;;;;;;-146.27;88.79;41144.38;5067621;28;20526;-73
2024/02/13 02:42:40;;;;;;;19.98;10.07;;;;;;;-146.27;88.67;41148.34;5068619;28;20149;-73
2024/02/13 02:45:06;;;;;;;13.10;8.95;;;;;;;-146.27;88.41;41164.25;5067548;28;20107;-73
2024/02/13 02:47:32;;;;;;;13.13;8.38;;;;;;;-146.27;88.29;41156.31;5069366;28;20024;-73
2024/02/13 02:49:57;;;;;;;20.80;8.68;;;;;;;-146.27;88.31;41184.16;5069162;28;20020;-73
2024/02/13 02:52:24;;;;;;;16.35;8.85;;;;;;;-146.27;88.41;41176.19;5065013;28;20028;-73
2024/02/13 02:54:49;;;;;;;16.95;8.70;;;;;;;-146.27;88.18;41184.16;5067235;28;20025;-73
2024/02/13 02:57:15;;;;;;;12.57;7.43;;;;;;;-146.27;88.41;41202.03;5067892;28;20021;-72
2024/02/13 02:59:40;;;;;;;14.80;8.15;;;;;;;-146.27;88.19;41188.13;5065042;28;20435;-72
2024/02/13 03:02:07;;;;;;;11.35;7.95;;;;;;;-146.27;88.32;41229.88;5072579;28;20544;-74
2024/02/13 03:04:33;;;;;;;17.10;7.57;;;;;;;-146.27;88.26;41208.00;5070101;28;20029;-73
2024/02/13 03:06:59;;;;;;;14.18;7.90;;;;;;;-146.27;88.65;41241.81;5071023;28;20029;-72
2024/02/13 03:09:25;;;;;;;19.45;7.53;;;;;;;-146.27;88.84;41217.94;5055669;28;20029;-73
2024/02/13 03:11:51;;;;;;;16.02;7.18;;;;;;;-146.27;88.73;41223.91;5071510;28;20400;-73
2024/02/13 03:14:16;;;;;;;25.52;7.75;;;;;;;-146.27;88.87;41204.03;5069060;28;20025;-73
2024/02/13 03:16:43;;;;;;;14.77;7.93;;;;;;;-146.27;88.86;41251.75;5072985;28;20056;-73
2024/02/13 03:19:08;;;;;;;16.42;7.65;;;;;;;-146.27;89.67;41255.72;5067935;28;20377;-73
2024/02/13 03:21:35;;;;;;;20.38;7.05;;;;;;;-146.27;89.35;41245.78;5069852;28;20504;-73
2024/02/13 03:24:00;;;;;;;18.85;7.18;;;;;;;-146.27;88.85;41227.88;5072069;28;20041;-73
2024/02/13 03:26:26;;;;;;;12.35;6.22;;;;;;;-146.27;88.72;41243.78;5073519;28;20024;-73
2024/02/13 03:28:51;;;;;;;21.80;7.85;;;;;;;-146.27;88.72;41261.69;5072856;28;20048;-73
2024/02/13 03:31:16;;;;;;;20.60;6.95;;;;;;;-146.27;89.20;41275.59;5069670;28;20027;-73
2024/02/13 03:33:42;;;;;;;13.52;7.07;;;;;;;-146.27;89.48;41277.59;5070654;28;20070;-73
2024/02/13 03:36:08;;;;;;;10.88;6.90;;;;;;;-146.27;89.01;41265.66;5075079;28;20132;-73
2024/02/13 03:38:33;;;;;;;19.85;6.90;;;;;;;-146.27;88.64;41235.84;5072776;28;20027;-73
2024/02/13 03:40:59;;;;;;;13.35;6.50;;;;;;;-146.27;88.24;41200.06;5071399;28;20032;-71
2024/02/13 03:43:25;;;;;;;17.70;6.45;;;;;;;-146.27;89.37;41239.81;5070270;28;20594;-71
2024/02/13 03:45:51;;;;;;;13.85;6.82;;;;;;;-146.27;89.20;41261.69;5069818;28;20024;-71
2024/02/13 03:48:16;;;;;;;13.23;6.53;;;;;;;-146.27;89.85;41301.44;5071151;28;20032;-71
2024/02/13 03:50:42;;;;;;;10.52;6.03;;;;;;;-146.27;89.32;41315.38;5069477;28;20581;-71
2024/02/13 03:53:07;;;;;;;14.35;6.72;;;;;;;-146.27;89.24;41253.72;5071529;28;20153;-71
2024/02/13 03:55:33;;;;;;;17.20;6.65;;;;;;;-146.27;88.78;41267.66;5069240;28;20028;-71
2024/02/13 03:57:58;;;;;;;13.40;6.50;;;;;;;-146.27;89.68;41333.25;5068813;28;20256;-71
2024/02/13 04:00:23;;;;;;;13.20;6.25;;;;;;;-146.27;89.20;41269.63;5062748;28;20028;-71
2024/02/13 04:02:49;;;;;;;14.18;6.80;;;;;;;-146.27;88.78;41285.53;5070838;28;20040;-71
2024/02/13 04:05:14;;;;;;;17.80;6.75;;;;;;;-146.27;88.59;41299.47;5070198;28;20757;-71
2024/02/13 04:07:40;;;;;;;17.77;6.47;;;;;;;-146.27;88.59;41315.38;5071605;28;20333;-71
2024/02/13 04:10:07;;;;;;;14.65;6.15;;;;;;;-146.27;88.78;41299.47;5068254;28;20063;-71
2024/02/13 04:12:32;;;;;;;14.52;6.50;;;;;;;-146.27;88.96;41311.38;5069238;28;20052;-71
2024/02/13 04:14:59;;;;;;;11.43;6.43;;;;;;;-146.27;89.77;41277.59;5067377;28;20590;-71
2024/02/13 04:17:24;;;;;;;19.67;6.97;;;;;;;-146.27;89.75;41311.38;5070307;28;20377;-71
2024/02/13 04:19:50;;;;;;;11.85;7.00;;;;;;;-146.27;89.05;41283.56;5069773;28;20029;-71
2024/02/13 04:22:15;;;;;;;15.88;6.78;;;;;;;-146.27;89.20;41295.47;5057766;28;20041;-72
2024/02/13 04:24:40;;;;;;;15.43;6.95;;;;;;;-146.27;88.72;41287.53;5068268;28;20032;-71
2024/02/13 04:27:06;;;;;;;17.83;6.93;;;;;;;-146.27;89.05;41319.34;5074471;28;20557;-70
2024/02/13 04:29:32;;;;;;;13.30;6.25;;;;;;;-146.27;89.00;41303.44;5071556;28;20441;-71
2024/02/13 04:31:59;;;;;;;16.80;7.10;;;;;;;-146.27;89.02;41305.41;5070178;28;20036;-70
2024/02/13 04:34:24;;;;;;;13.77;7.05;;;;;;;-146.27;89.10;41315.38;5068882;28;20087;-71
2024/02/13 04:36:49;;;;;;;25.92;7.45;;;;;;;-146.27;89.45;41283.56;5066737;28;20060;-71
2024/02/13 04:39:15;;;;;;;21.05;6.75;;;;;;;-146.27;89.82;41261.69;5070351;28;20081;-71
2024/02/13 04:41:42;;;;;;;11.35;6.22;;;;;;;-146.27;90.40;41371.03;5069339;28;20024;-71
2024/02/13 04:44:07;;;;;;;14.55;6.88;;;;;;;-146.27;90.29;41265.66;5068459;28;20024;-70
2024/02/13 04:46:33;;;;;;;16.73;7.22;;;;;;;-146.27;90.85;41289.50;5070187;28;20455;-71
2024/02/13 04:49:00;;;;;;;11.23;6.70;;;;;;;-146.27;91.09;41285.53;5069779;28;20071;-72
2024/02/13 04:51:25;;;;;;;16.27;7.15;;;;;;;-146.27;91.42;41227.88;5070361;28;20074;-70
2024/02/13 04:53:51;;;;;;;26.38;6.68;;;;;;;-146.27;91.23;41287.53;5068846;28;20439;-70
2024/02/13 04:56:17;;;;;;;13.88;6.63;;;;;;;-146.27;91.55;41243.78;5069304;28;20103;-72
2024/02/13 04:58:43;;;;;;;17.33;7.10;;;;;;;-146.27;90.97;41204.03;5062841;28;20049;-72
2024/02/13 05:01:12;;;;;;;16.35;7.28;;;;;;;-146.27;90.54;41217.94;5058523;28;20029;-69
2024/02/13 05:09:00;;;;;;;16.08;6.25;;;;;;;-146.27;91.38;41213.97;5068774;28;20031;-71
2024/02/13 05:11:25;;;;;;;21.13;6.93;;;;;;;-146.27;91.12;41251.75;5070187;28;20024;-70
2024/02/13 05:13:51;;;;;;;12.27;6.45;;;;;;;-146.27;91.16;41158.31;5069589;28;20126;-71
2024/02/13 05:16:18;;;;;;;11.85;5.90;;;;;;;-146.27;91.42;41235.84;5064814;28;20025;-70
2024/02/13 05:18:46;;;;;;;13.02;6.13;;;;;;;-146.27;90.61;41184.16;5068176;28;20113;-70
2024/02/13 05:21:18;;;;;;;10.63;5.50;;;;;;;-146.27;90.80;41208.00;5067607;28;20442;-71
2024/02/13 05:23:43;;;;;;;22.25;6.40;;;;;;;-146.27;90.60;41162.28;5066089;28;20063;-70
2024/02/13 05:26:12;;;;;;;14.40;6.18;;;;;;;-146.27;90.69;41182.16;5068311;28;20029;-71
2024/02/13 05:28:37;;;;;;;19.58;5.28;;;;;;;-146.27;91.71;41211.97;5066382;28;20033;-72
2024/02/13 05:31:07;;;;;;;18.65;5.28;;;;;;;-146.27;92.50;41223.91;5070477;28;20035;-71
2024/02/13 05:33:32;;;;;;;16.13;5.10;;;;;;;-146.27;91.81;41152.34;5069443;28;20033;-72
2024/02/13 05:35:58;;;;;;;12.50;4.85;;;;;;;-146.27;92.20;41200.06;5068719;28;20020;-72
2024/02/13 05:38:23;;;;;;;15.55;5.28;;;;;;;-146.27;91.71;41158.31;5074353;28;20484;-73
2024/02/13 05:40:49;;;;;;;14.82;5.00;;;;;;;-146.27;92.00;41180.16;5077351;28;20046;-71
2024/02/13 05:43:14;;;;;;;15.23;5.40;;;;;;;-146.27;91.02;41126.50;5073499;28;20064;-72
2024/02/13 05:45:40;;;;;;;13.65;5.32;;;;;;;-146.27;91.79;41192.09;5067139;28;20032;-73
2024/02/13 05:48:07;;;;;;;18.55;4.55;;;;;;;-146.27;91.50;41200.06;5070055;28;20481;-72
2024/02/13 05:50:32;;;;;;;11.55;5.10;;;;;;;-146.27;90.98;41106.59;5069454;28;20055;-72
2024/02/13 05:52:58;;;;;;;21.23;5.65;;;;;;;-146.27;90.53;41108.59;5068360;28;20025;-72
2024/02/13 05:55:23;;;;;;;18.00;4.97;;;;;;;-146.27;90.64;41180.16;5064775;28;20024;-72
2024/02/13 05:57:49;;;;;;;16.52;5.38;;;;;;;-146.27;91.10;41136.44;5065758;28;20078;-72
2024/02/13 06:00:14;;;;;;;9.95;4.63;;;;;;;-146.27;91.07;41136.44;5063336;28;20525;-72
2024/02/13 06:02:41;;;;;;;9.80;4.22;;;;;;;-146.27;90.52;41172.22;5072191;28;20499;-73
2024/02/13 06:05:07;;;;;;;17.90;5.20;;;;;;;-146.27;90.53;41108.59;5064979;28;20035;-72
2024/02/13 06:07:33;;;;;;;17.13;4.65;;;;;;;-146.27;90.42;41198.06;5067840;28;20041;-72
2024/02/13 06:09:58;;;;;;;13.75;4.63;;;;;;;-146.27;90.25;41152.34;5066487;28;20107;-72
2024/02/13 06:12:24;;;;;;;26.60;6.07;;;;;;;-146.27;90.15;41188.13;5069559;28;20386;-71
2024/02/13 06:14:50;;;;;;;8.73;4.57;;;;;;;-146.27;89.68;41184.16;5065807;28;20031;-73
2024/02/13 06:17:16;;;;;;;11.57;4.35;;;;;;;-146.27;88.75;41184.16;5061920;28;20043;-71
2024/02/13 06:19:42;;;;;;;11.35;4.53;;;;;;;-146.27;88.63;41206.00;5058782;28;20025;-72
2024/02/13 06:22:07;;;;;;;15.20;5.60;;;;;;;-146.27;89.81;41291.50;5068459;28;20078;-72
2024/02/13 06:24:32;;;;;;;8.45;4.43;;;;;;;-146.27;91.51;41355.13;5067548;28;20037;-72
2024/02/13 06:26:58;;;;;;;19.88;5.63;;;;;;;-146.27;91.31;41287.53;5065840;28;20027;-72
2024/02/13 06:29:24;;;;;;;16.63;5.25;;;;;;;-146.27;90.07;41215.94;5067631;28;20039;-72
2024/02/13 06:31:54;;;;;;;12.88;5.57;;;;;;;-146.27;89.83;41251.75;5063646;28;20055;-72
2024/02/13 06:34:20;;;;;;;12.55;5.32;;;;;;;-146.27;90.10;41219.94;5069756;28;20025;-71
2024/02/13 06:36:45;;;;;;;13.88;5.63;;;;;;;-146.27;89.94;41283.56;5070624;28;20029;-72
2024/02/13 06:39:12;;;;;;;14.23;4.68;;;;;;;-146.27;90.33;41386.94;5070265;28;20024;-71
2024/02/13 06:41:39;;;;;;;12.43;5.25;;;;;;;-146.27;90.23;41295.47;5071502;28;20031;-71
2024/02/13 06:44:05;;;;;;;13.50;4.95;;;;;;;-146.27;89.92;41265.66;5073339;28;20093;-72
2024/02/13 06:46:31;;;;;;;16.00;5.63;;;;;;;-146.27;90.29;41363.06;5070520;28;20024;-71
2024/02/13 06:48:57;;;;;;;16.35;5.63;;;;;;;-146.27;88.89;41273.59;5070393;28;20024;-72
2024/02/13 06:51:23;;;;;;;19.05;5.25;;;;;;;-146.27;87.97;41261.69;5059878;28;20676;-72
2024/02/13 06:53:49;;;;;;;6.10;4.10;;;;;;;-146.27;89.22;41371.03;5065943;28;20316;-75
2024/02/13 06:56:14;;;;;;;12.63;4.07;;;;;;;-146.27;89.71;41398.88;5069660;28;20016;-71
2024/02/13 06:58:41;;;;;;;11.90;4.65;;;;;;;-146.27;89.63;41402.84;5070363;28;20028;-72
2024/02/13 07:01:08;;;;;;;12.27;4.85;;;;;;;-146.27;89.62;41398.88;5075446;28;20020;-71
2024/02/13 07:03:34;;;;;;;10.27;4.57;;;;;;;-146.27;89.79;41335.25;5074065;28;20119;-72
2024/02/13 07:05:59;;;;;;;11.55;4.22;;;;;;;-146.27;88.76;41353.13;5067190;28;20112;-71
2024/02/13 07:08:25;;;;;;;13.52;4.68;;;;;;;-146.27;88.96;41414.78;5069653;28;20044;-72
2024/02/13 07:10:50;;;;;;;11.65;5.22;;;;;;;-146.27;88.59;41382.97;5069998;28;20060;-73
2024/02/13 07:13:16;;;;;;;11.55;4.05;;;;;;;-146.27;88.97;41410.78;5073736;28;20469;-73
2024/02/13 07:15:41;;;;;;;16.15;4.20;;;;;;;-146.27;87.96;41418.75;5073863;28;20082;-73
2024/02/13 07:18:07;;;;;;;13.25;5.05;;;;;;;-146.27;87.74;41434.66;5070398;28;20025;-73
2024/02/13 07:20:34;;;;;;;10.95;4.93;;;;;;;-146.27;88.02;41474.41;5068970;28;20404;-72
2024/02/13 07:23:01;;;;;;;7.88;4.80;;;;;;;-146.27;88.50;41472.44;5069010;28;20147;-73
2024/02/13 07:25:28;;;;;;;16.10;4.68;;;;;;;-146.27;88.83;41547.97;5073282;28;20059;-73
2024/02/13 07:27:56;;;;;;;13.02;4.50;;;;;;;-146.27;89.34;41557.94;5064866;28;20021;-73
2024/02/13 07:30:21;;;;;;;13.02;4.50;;;;;;;-146.27;89.00;41601.66;5074974;28;20059;-76
2024/02/13 07:32:47;;;;;;;8.65;4.50;;;;;;;-146.27;89.54;41609.63;5069170;28;20048;-74
2024/02/13 07:35:14;;;;;;;9.90;4.75;;;;;;;-146.27;90.07;41613.59;5065159;28;20071;-73
2024/02/13 07:37:39;;;;;;;15.25;5.25;;;;;;;-146.27;89.99;41713.00;5071718;28;20067;-72
2024/02/13 07:40:05;;;;;;;8.48;4.75;;;;;;;-146.27;89.34;41677.22;5072142;28;20028;-72
2024/02/13 07:42:31;;;;;;;14.23;4.60;;;;;;;-146.27;89.86;41744.81;5072053;28;20031;-73
2024/02/13 07:44:57;;;;;;;12.88;4.70;;;;;;;-146.27;89.51;41754.78;5071812;28;20028;-72
2024/02/13 07:47:25;;;;;;;8.27;4.55;;;;;;;-146.27;89.81;41782.59;5071744;28;20388;-72
2024/02/13 07:49:52;;;;;;;13.30;5.22;;;;;;;-146.27;88.81;41824.38;5071742;28;20024;-72
2024/02/13 07:52:18;;;;;;;14.70;4.32;;;;;;;-146.27;88.51;41866.13;5071828;28;20439;-72
2024/02/13 07:54:47;;;;;;;7.53;4.03;;;;;;;-146.27;89.93;41971.50;5072400;28;20017;-72
2024/02/13 07:57:16;;;;;;;17.38;4.97;;;;;;;-146.27;89.40;41919.81;5071875;28;20025;-72
2024/02/13 07:59:42;;;;;;;9.05;5.32;;;;;;;-146.27;89.38;41915.84;5071911;28;20316;-72
2024/02/13 08:02:09;;;;;;;12.55;5.25;;;;;;;-146.27;89.41;41955.59;5071977;28;20384;-72
2024/02/13 08:04:35;;;;;;;11.63;4.35;;;;;;;-146.27;88.89;42011.28;5071075;28;20028;-72
2024/02/13 08:07:01;;;;;;;19.25;4.63;;;;;;;-146.27;88.51;41965.53;5067100;28;20071;-73
2024/02/13 08:09:26;;;;;;;7.47;4.22;;;;;;;-146.27;88.54;42037.13;5052119;28;20028;-72
2024/02/13 08:11:53;;;;;;;31.45;4.85;;;;;;;-146.27;87.54;41961.56;5051914;28;20479;-72
2024/02/13 08:14:19;;;;;;;13.82;4.20;;;;;;;-146.27;89.36;42124.63;5051545;28;20158;-73
2024/02/13 08:16:44;;;;;;;14.25;5.25;;;;;;;-146.27;89.57;42160.41;5051592;28;20103;-73
2024/02/13 08:19:11;;;;;;;14.05;3.75;;;;;;;-146.27;89.31;42043.09;5051413;28;20033;-73
2024/02/13 08:21:37;;;;;;;12.75;4.00;;;;;;;-146.27;89.14;42122.63;5051532;28;20035;-73
2024/02/13 08:24:04;;;;;;;20.00;4.13;;;;;;;-146.27;88.80;42134.56;5068187;28;20052;-73
2024/02/13 08:26:29;;;;;;;15.65;4.20;;;;;;;-146.27;88.42;42094.81;5071148;28;20028;-73
2024/02/13 08:28:54;;;;;;;6.32;4.18;;;;;;;-146.27;88.67;42122.63;5071277;28;20036;-72
2024/02/13 08:31:20;;;;;;;13.25;3.75;;;;;;;-146.27;87.97;42116.66;5071248;28;20063;-73
2024/02/13 08:33:45;;;;;;;12.65;4.05;;;;;;;-146.27;88.30;42102.75;5071155;28;20052;-73
2024/02/13 08:36:11;;;;;;;11.05;3.70;;;;;;;-146.27;88.41;42152.47;5069930;28;20028;-73
2024/02/13 08:38:41;;;;;;;9.00;3.25;;;;;;;-146.27;88.42;42096.78;5071047;28;20473;-73
2024/02/13 08:41:07;;;;;;;15.80;3.25;;;;;;;-146.27;87.82;42114.69;5070852;28;20024;-73
2024/02/13 08:43:32;;;;;;;9.73;3.17;;;;;;;-146.27;88.45;42164.41;5071136;28;20573;-73
2024/02/13 08:46:00;;;;;;;9.02;2.85;;;;;;;-146.27;87.79;42104.75;5070875;28;20028;-73
2024/02/13 08:48:25;;;;;;;10.85;3.65;;;;;;;-146.27;87.53;42182.28;5069072;28;20024;-72
2024/02/13 08:50:53;;;;;;;7.38;3.08;;;;;;;-146.27;87.00;42096.78;5070888;28;20112;-74
2024/02/13 08:53:18;;;;;;;13.25;3.83;;;;;;;-146.27;87.13;42100.75;5068818;28;20504;-73
2024/02/13 08:55:44;;;;;;;13.60;3.92;;;;;;;-146.27;86.98;42027.19;5068025;28;20051;-74
2024/02/13 08:58:09;;;;;;;9.52;3.53;;;;;;;-146.27;87.09;42130.59;5069031;28;20028;-73
2024/02/13 09:00:35;;;;;;;10.88;3.03;;;;;;;-146.27;86.57;42070.94;5070622;28;20024;-73
2024/02/13 09:03:01;;;;;;;10.77;2.88;;;;;;;-146.27;86.34;42037.13;5070389;28;20029;-73
2024/02/13 09:05:27;;;;;;;10.30;2.95;;;;;;;-146.27;85.46;42025.19;5070531;28;20020;-73
2024/02/13 09:07:52;;;;;;;11.20;3.30;;;;;;;-146.27;85.28;42009.28;5070641;28;20040;-73
2024/02/13 09:10:18;;;;;;;10.32;2.70;;;;;;;-146.27;84.91;42043.09;5071053;28;20052;-73
2024/02/13 09:12:45;;;;;;;7.68;2.70;;;;;;;-146.27;84.58;41947.66;5068373;28;20024;-73
2024/02/13 09:15:12;;;;;;;12.57;2.97;;;;;;;-146.27;83.34;41927.75;5069324;28;20059;-73
2024/02/13 09:17:42;;;;;;;11.88;3.13;;;;;;;-146.27;84.18;41971.50;5069455;28;20036;-73
2024/02/13 09:20:08;;;;;;;7.65;2.58;;;;;;;-146.27;84.66;42035.16;5070597;28;20021;-73
2024/02/13 09:22:37;;;;;;;8.52;2.33;;;;;;;-146.27;83.95;41903.91;5068621;28;20044;-73
2024/02/13 09:25:04;;;;;;;4.40;1.95;;;;;;;-146.27;83.59;41876.06;5069564;28;20052;-73
2024/02/13 09:27:29;;;;;;;11.50;2.95;;;;;;;-146.27;83.77;41991.41;5066563;28;20029;-74
2024/02/13 09:29:55;;;;;;;7.00;2.78;;;;;;;-146.27;83.53;41917.81;5070300;28;20027;-73
2024/02/13 09:32:21;;;;;;;9.82;3.05;;;;;;;-146.27;83.50;41907.88;5069940;28;20099;-72
2024/02/13 09:34:47;;;;;;;9.10;2.72;;;;;;;-146.27;83.80;41999.34;5069421;28;20054;-72
2024/02/13 09:37:14;;;;;;;7.30;2.90;;;;;;;-146.27;84.69;42027.19;5070243;28;20048;-72
2024/02/13 09:39:40;;;;;;;11.65;3.63;;;;;;;-146.27;83.20;41899.94;5070229;28;20089;-71
2024/02/13 09:42:07;;;;;;;16.35;2.97;;;;;;;-146.27;84.49;42124.63;5070309;28;20028;-71
2024/02/13 09:44:33;;;;;;;10.63;3.20;;;;;;;-146.27;82.37;41893.97;5070067;28;20029;-70
2024/02/13 09:46:59;;;;;;;12.90;3.40;;;;;;;-146.27;82.42;41939.69;5068448;28;20038;-72
2024/02/13 09:49:26;;;;;;;7.35;2.83;;;;;;;-146.27;81.21;41888.00;5070057;28;20026;-72
2024/02/13 09:51:53;;;;;;;16.77;4.13;;;;;;;-146.27;80.91;41866.13;5065698;28;20486;-72
2024/02/13 09:54:20;;;;;;;6.88;2.60;;;;;;;-146.27;81.11;41895.94;5068080;28;20029;-71
2024/02/13 09:56:46;;;;;;;7.43;2.85;;;;;;;-146.27;80.14;41832.31;5068438;28;20028;-70
2024/02/13 09:59:12;;;;;;;7.43;2.70;;;;;;;-146.27;79.19;41784.59;5068591;28;20481;-72
2024/02/13 10:01:38;;;;;;;5.78;2.70;;;;;;;-146.27;80.45;41947.66;5068736;28;20116;-72
2024/02/13 10:04:04;;;;;;;9.48;3.15;;;;;;;-146.27;80.24;41939.69;5067687;28;20103;-73
2024/02/13 10:06:30;;;;;;;5.65;2.67;;;;;;;-146.27;80.83;42059.00;5069157;28;20032;-71
2024/02/13 10:08:55;;;;;;;4.97;2.78;;;;;;;-146.27;80.95;42090.81;5070592;28;20021;-71
2024/02/13 10:11:31;;;;;;;12.05;2.60;;;;;;;-146.27;80.96;42041.09;5073440;28;20089;-72
2024/02/13 10:13:57;;;;;;;5.95;2.78;;;;;;;-146.27;79.77;42025.19;5074099;28;20559;-72
2024/02/13 10:16:24;;;;;;;10.68;2.22;;;;;;;-146.27;79.54;42043.09;5074098;28;20020;-71
2024/02/13 10:18:54;;;;;;;8.15;2.78;;;;;;;-146.27;77.97;41893.97;5074029;28;20100;-71
2024/02/13 10:21:24;;;;;;;5.13;2.30;;;;;;;-146.27;77.06;41929.75;5074041;28;20028;-71
2024/02/13 10:23:53;;;;;;;5.15;2.45;;;;;;;-146.27;76.00;41742.84;5072992;28;20041;-72
2024/02/13 10:26:20;;;;;;;10.73;1.98;;;;;;;-146.27;75.51;41911.84;5072032;28;20028;-71
2024/02/13 10:28:54;;;;;;;5.75;2.53;;;;;;;-146.27;74.30;41709.03;5072228;28;20110;-71
2024/02/13 10:31:26;;;;;;;;;;;;;;;-146.27;72.88;41784.59;5073193;28;20077;-73
2024/02/13 10:33:52;;;;;;;4.03;2.08;;;;;;;-146.27;74.17;41868.09;5053497;28;19978;-72
2024/02/13 10:36:17;;;;;;;8.05;3.17;;;;;;;-146.27;73.53;41826.34;5053428;28;20039;-71
2024/02/13 10:38:51;;;;;;;4.47;2.20;;;;;;;-146.27;72.99;41913.84;5053414;28;20108;-72
2024/02/13 10:41:25;;;;;;;;;;;;;;;-146.27;73.07;41852.19;5070296;28;20029;-71
2024/02/13 10:43:52;;;;;;;6.65;2.42;;;;;;;-146.27;74.12;42120.66;5073329;28;19939;-72
2024/02/13 10:46:25;;;;;;;7.93;1.98;;;;;;;-146.27;74.72;41989.41;5071841;28;20024;-72
2024/02/13 10:49:17;;;;;;;9.50;2.08;;;;;;;-146.27;74.11;42019.22;5073151;28;20396;-73
2024/02/13 10:51:44;;;;;;;4.38;1.70;;;;;;;-146.27;74.58;42174.34;5073076;28;20025;-71
2024/02/13 10:54:12;;;;;;;10.35;2.45;;;;;;;-146.27;74.02;42047.06;5071278;28;20032;-72
2024/02/13 10:56:39;;;;;;;4.20;1.70;;;;;;;-146.27;71.95;42035.16;5070532;28;20032;-71
2024/02/13 10:59:06;;;;;;;8.55;2.10;;;;;;;-146.27;72.54;42112.69;5073031;28;20025;-71
2024/02/13 11:01:34;;;;;;;6.10;1.80;;;;;;;-146.27;72.48;42140.53;5073020;28;20024;-71
2024/02/13 11:04:01;;;;;;;5.72;2.20;;;;;;;-146.27;72.10;42062.97;5072986;28;20032;-71
2024/02/13 11:06:27;;;;;;;6.30;2.17;;;;;;;-146.27;71.53;41939.69;5072785;28;20024;-71
2024/02/13 11:08:54;;;;;;;8.05;1.90;;;;;;;-146.27;69.60;41836.28;5073144;28;20391;-72
2024/02/13 11:11:23;;;;;;;3.28;1.88;;;;;;;-146.27;68.39;41864.13;5070718;28;20052;-71
2024/02/13 11:13:49;;;;;;;4.90;1.60;;;;;;;-146.27;67.86;41641.44;5072742;28;20036;-71